Time;durP1;ratioP1;P1;durP2;ratioP2;P2;SDS_P1;SDS_P2;PMS_P1;PMS_P2;Temp;Humidity;BMP_temperature;BMP_pressure;BME280_temperature;BME280_humidity;BME280_pressure;Samples;Min_cycle;Max_cycle;Signal;HPM_P1;HPM_P2
2023/06/21 00:03:44;;;;;;;;;;;;;;;;;;5112051;27;19916;-67
2023/06/21 00:07:12;;;;;;;;;;;;;;;;;;5111825;27;20236;-66
2023/06/21 00:13:34;;;;;;;;;;;;;;;;;;5111413;27;19916;-64
2023/06/21 00:18:32;;;;;;;;;;;;;;;;;;5112124;27;19922;-64
2023/06/21 00:20:59;;;;;;;;;;;;;;;;;;5110008;28;20002;-64
2023/06/21 00:30:27;;;;;;;;;;;;;;;;;;5112198;27;19922;-64
2023/06/21 00:32:53;;;;;;;;;;;;;;;;;;5111332;28;19999;-64
2023/06/21 00:35:19;;;;;;;;;;;;;;;;;;5110461;28;20386;-66
2023/06/21 00:40:07;;;;;;;;;;;;;;;;;;5111543;27;19912;-64
2023/06/21 00:42:33;;;;;;;;;;;;;;;;;;5111808;28;20289;-64
2023/06/21 00:44:59;;;;;;;;;;;;;;;;;;5111931;28;19908;-64
2023/06/21 00:48:29;;;;;;;;;;;;;;;;;;5152777;27;20006;-65
2023/06/21 00:51:42;;;;;;;;;;;;;;;;;;5112158;27;19916;-64
2023/06/21 00:54:08;;;;;;;;;;;;;;;;;;5110085;28;19915;-65
2023/06/21 00:56:34;;;;;;;;;;;;;;;;;;5110412;28;19961;-65
2023/06/21 00:59:00;;;;;;;;;;;;;;;;;;5111743;28;19998;-65
2023/06/21 01:01:29;;;;;;;;;;;;;;;;;;5111213;28;19908;-65
2023/06/21 01:03:55;;;;;;;;;;;;;;;;;;5111588;28;20259;-65
2023/06/21 01:06:21;;;;;;;;;;;;;;;;;;5111874;28;19919;-65
2023/06/21 01:08:48;;;;;;;;;;;;;;;;;;5111391;28;20368;-65
2023/06/21 01:11:14;;;;;;;;;;;;;;;;;;5111425;28;19924;-65
2023/06/21 01:13:40;;;;;;;;;;;;;;;;;;5111411;28;19908;-65
2023/06/21 01:16:30;;;;;;;;;;;;;;;;;;5091074;27;20373;-64
2023/06/21 01:20:28;;;;;;;;;;;;;;;;;;5111947;27;19916;-64
2023/06/21 01:25:54;;;;;;;;;;;;;;;;;;5112029;27;19916;-64
2023/06/21 01:30:02;;;;;;;;;;;;;;;;;;5152920;27;20006;-63
2023/06/21 01:34:45;;;;;;;;;;;;;;;;;;5152958;27;19919;-64
2023/06/21 01:39:18;;;;;;;;;;;;;;;;;;5111824;27;19919;-65
2023/06/21 01:44:22;;;;;;;;;;;;;;;;;;5111712;27;19916;-64
2023/06/21 01:46:51;;;;;;;;;;;;;;;;;;5111685;28;19919;-64
2023/06/21 01:49:17;;;;;;;;;;;;;;;;;;5111606;28;19916;-64
2023/06/21 01:51:43;;;;;;;;;;;;;;;;;;5110023;28;19908;-64
2023/06/21 01:54:09;;;;;;;;;;;;;;;;;;5111584;28;19965;-64
2023/06/21 01:56:35;;;;;;;;;;;;;;;;;;5110408;28;19954;-64
2023/06/21 02:00:49;;;;;;;;;;;;;;;;;;5091766;27;19916;-64
2023/06/21 02:04:52;;;;;;;;;;;;;;;;;;5111703;27;19918;-65
2023/06/21 02:07:18;;;;;;;;;;;;;;;;;;5111718;28;20434;-65
2023/06/21 02:12:00;;;;;;;;;;;;;;;;;;5111821;27;19922;-64
2023/06/21 02:14:26;;;;;;;;;;;;;;;;;;5111764;28;20337;-64
2023/06/21 02:16:52;;;;;;;;;;;;;;;;;;5111664;28;19912;-65
2023/06/21 02:19:18;;;;;;;;;;;;;;;;;;5111372;28;19995;-64
2023/06/21 02:23:37;;;;;;;;;;;;;;;;;;5092295;27;19916;-64
2023/06/21 02:28:31;;;;;;;;;;;;;;;;;;5111870;27;20384;-64
2023/06/21 02:30:57;;;;;;;;;;;;;;;;;;5110486;28;19912;-64
2023/06/21 02:34:32;;;;;;;;;;;;;;;;;;5111431;27;19916;-64
2023/06/21 02:38:31;;;;;;;;;;;;;;;;;;5112628;27;19916;-64
2023/06/21 02:41:45;;;;;;;;;;;;;;;;;;5112173;27;20261;-64
2023/06/21 02:44:54;;;;;;;;;;;;;;;;;;5112365;27;20301;-64
2023/06/21 02:49:13;;;;;;;;;;;;;;;;;;5153167;27;20010;-64
2023/06/21 02:51:39;;;;;;;;;;;;;;;;;;5153086;27;19958;-63
2023/06/21 02:54:05;;;;;;;;;;;;;;;;;;5133960;27;19908;-64
2023/06/21 02:56:31;;;;;;;;;;;;;;;;;;5152926;27;19917;-64
2023/06/21 02:58:57;;;;;;;;;;;;;;;;;;5134273;27;20312;-64
2023/06/21 03:05:04;;;;;;;;;;;;;;;;;;5153527;27;19921;-66
2023/06/21 03:08:22;;;;;;;;;;;;;;;;;;5111876;27;20398;-65
2023/06/21 03:10:47;;;;;;;;;;;;;;;;;;5111765;28;19946;-64
2023/06/21 03:16:11;;;;;;;;;;;;;;;;;;5111624;27;19922;-63
2023/06/21 03:18:37;;;;;;;;;;;;;;;;;;5110453;28;19995;-64
2023/06/21 03:24:41;;;;;;;;;;;;;;;;;;5091800;27;20410;-64
2023/06/21 03:27:07;;;;;;;;;;;;;;;;;;5091340;28;19999;-64
2023/06/21 03:29:33;;;;;;;;;;;;;;;;;;5091235;28;20364;-64
2023/06/21 03:31:58;;;;;;;;;;;;;;;;;;5090034;28;20387;-64
2023/06/21 03:34:24;;;;;;;;;;;;;;;;;;5089974;28;19912;-64
2023/06/21 03:37:11;;;;;;;;;;;;;;;;;;5091352;27;19916;-65
2023/06/21 03:39:38;;;;;;;;;;;;;;;;;;5090114;28;19970;-64
2023/06/21 03:46:24;;;;;;;;;;;;;;;;;;5112015;27;20265;-64
2023/06/21 03:48:51;;;;;;;;;;;;;;;;;;5111837;28;19999;-64
2023/06/21 03:51:17;;;;;;;;;;;;;;;;;;5110004;28;20016;-66
2023/06/21 03:53:43;;;;;;;;;;;;;;;;;;5111708;28;19929;-64
2023/06/21 03:56:58;;;;;;;;;;;;;;;;;;5112068;27;19922;-64
2023/06/21 03:59:23;;;;;;;;;;;;;;;;;;5111781;28;19973;-66
2023/06/21 04:01:49;;;;;;;;;;;;;;;;;;5111644;28;19908;-64
2023/06/21 04:04:15;;;;;;;;;;;;;;;;;;5111326;28;19915;-64
2023/06/21 04:06:41;;;;;;;;;;;;;;;;;;5111736;28;19915;-64
2023/06/21 04:09:07;;;;;;;;;;;;;;;;;;5111561;28;19912;-65
2023/06/21 04:14:26;;;;;;;;;;;;;;;;;;5112564;27;19916;-64
2023/06/21 04:17:39;;;;;;;;;;;;;;;;;;5112276;27;20287;-66
2023/06/21 04:23:49;;;;;;;;;;;;;;;;;;5112538;27;19912;-64
2023/06/21 04:26:14;;;;;;;;;;;;;;;;;;5111311;28;20007;-64
2023/06/21 04:30:00;;;;;;;;;;;;;;;;;;5112489;27;20330;-64
2023/06/21 04:33:36;;;;;;;;;;;;;;;;;;5091172;27;19917;-64
2023/06/21 04:36:02;;;;;;;;;;;;;;;;;;5091364;28;20010;-64
2023/06/21 04:43:35;;;;;;;;;;;;;;;;;;5091671;27;20399;-64
2023/06/21 04:51:59;;;;;;;;;;;;;;;;;;5091807;27;19919;-64
2023/06/21 04:59:42;;;;;;;;;;;;;;;;;;5112647;27;19922;-65
2023/06/21 05:09:21;;;;;;;;;;;;;;;;;;5090985;27;19916;-66
2023/06/21 05:11:47;;;;;;;;;;;;;;;;;;5091444;28;20003;-65
2023/06/21 05:14:13;;;;;;;;;;;;;;;;;;5089674;28;19908;-66
2023/06/21 05:16:40;;;;;;;;;;;;;;;;;;5091494;28;20404;-65
2023/06/21 05:19:07;;;;;;;;;;;;;;;;;;5091286;28;20357;-65
2023/06/21 05:21:33;;;;;;;;;;;;;;;;;;5091021;28;19923;-65
2023/06/21 05:23:59;;;;;;;;;;;;;;;;;;5091180;28;19995;-65
2023/06/21 05:28:06;;;;;;;;;;;;;;;;;;5112035;27;19923;-64
2023/06/21 05:34:31;;;;;;;;;;;;;;;;;;5112110;27;19916;-64
2023/06/21 05:36:56;;;;;;;;;;;;;;;;;;5123297;28;19918;-64
2023/06/21 05:41:36;;;;;;;;;;;;;;;;;;5113562;27;19912;-63
2023/06/21 05:44:02;;;;;;;;;;;;;;;;;;5109481;28;20295;-64
2023/06/21 05:46:28;;;;;;;;;;;;;;;;;;5109377;28;19908;-64
2023/06/21 05:48:54;;;;;;;;;;;;;;;;;;5109419;28;20026;-64
2023/06/21 05:57:47;;;;;;;;;;;;;;;;;;5147478;27;19915;-62
2023/06/21 06:02:24;;;;;;;;;;;;;;;;;;5088667;27;19922;-62
2023/06/21 06:04:50;;;;;;;;;;;;;;;;;;5087443;28;19912;-61
2023/06/21 06:07:16;;;;;;;;;;;;;;;;;;5078691;28;20438;-61
2023/06/21 06:14:16;;;;;;;;;;;;;;;;;;5085507;27;20011;-61
2023/06/21 06:16:42;;;;;;;;;;;;;;;;;;5090603;28;19951;-61
2023/06/21 06:19:07;;;;;;;;;;;;;;;;;;5092338;28;20391;-61
2023/06/21 06:21:33;;;;;;;;;;;;;;;;;;5089481;28;20295;-61
2023/06/21 06:25:27;;;;;;;;;;;;;;;;;;5090096;27;19913;-61
2023/06/21 06:27:53;;;;;;;;;;;;;;;;;;5097798;28;19995;-62
2023/06/21 06:31:54;;;;;;;;;;;;;;;;;;5110234;27;19923;-64
2023/06/21 06:36:06;;;;;;;;;;;;;;;;;;5089838;27;19917;-63
2023/06/21 06:38:32;;;;;;;;;;;;;;;;;;5085399;28;19931;-62
2023/06/21 06:40:58;;;;;;;;;;;;;;;;;;5089566;28;20280;-62
2023/06/21 06:51:21;;;;;;;;;;;;;;;;;;5132210;27;20291;-62
2023/06/21 06:53:49;;;;;;;;;;;;;;;;;;5129014;27;20003;-62
2023/06/21 06:56:55;;;;;;;;;;;;;;;;;;5098056;27;19942;-64
2023/06/21 07:00:57;;;;;;;;;;;;;;;;;;5067349;28;19927;-62
2023/06/21 07:03:23;;;;;;;;;;;;;;;;;;5067351;28;20036;-63
2023/06/21 07:05:49;;;;;;;;;;;;;;;;;;5065544;28;20003;-63
2023/06/21 07:08:15;;;;;;;;;;;;;;;;;;5044780;28;20452;-62
2023/06/21 07:10:41;;;;;;;;;;;;;;;;;;5062836;28;19913;-63
2023/06/21 07:13:07;;;;;;;;;;;;;;;;;;5048315;28;19932;-63
2023/06/21 07:15:33;;;;;;;;;;;;;;;;;;5026323;28;19915;-63
2023/06/21 07:17:59;;;;;;;;;;;;;;;;;;5059516;28;19917;-63
2023/06/21 07:20:25;;;;;;;;;;;;;;;;;;5038636;28;19920;-63
2023/06/21 07:22:51;;;;;;;;;;;;;;;;;;5046787;28;19936;-63
2023/06/21 07:25:17;;;;;;;;;;;;;;;;;;5048073;28;19913;-64
2023/06/21 07:27:43;;;;;;;;;;;;;;;;;;5046960;28;19924;-61
2023/06/21 07:30:09;;;;;;;;;;;;;;;;;;5047430;28;19913;-62
2023/06/21 07:32:35;;;;;;;;;;;;;;;;;;5044093;28;19912;-62
2023/06/21 07:35:01;;;;;;;;;;;;;;;;;;5064495;28;19917;-66
2023/06/21 07:39:26;;;;;;;;;;;;;;;;;;5137675;27;19915;-62
2023/06/21 07:41:52;;;;;;;;;;;;;;;;;;5124878;28;20010;-62
2023/06/21 07:44:18;;;;;;;;;;;;;;;;;;5127383;28;19916;-63
2023/06/21 07:50:12;;;;;;;;;;;;;;;;;;5108193;27;20380;-62
2023/06/21 07:53:13;;;;;;;;;;;;;;;;;;5117102;27;19920;-63
2023/06/21 07:55:39;;;;;;;;;;;;;;;;;;5105774;28;19916;-64
2023/06/21 07:58:06;;;;;;;;;;;;;;;;;;5096711;28;19962;-64
2023/06/21 08:00:32;;;;;;;;;;;;;;;;;;5089036;28;20600;-63
2023/06/21 08:05:43;;;;;;;;;;;;;;;;;;5106804;27;20401;-63
2023/06/21 08:10:24;;;;;;;;;;;;;;;;;;5080311;28;19925;-64
2023/06/21 08:12:50;;;;;;;;;;;;;;;;;;5065842;28;19934;-64
2023/06/21 08:15:16;;;;;;;;;;;;;;;;;;5061688;28;19921;-64
2023/06/21 08:19:00;;;;;;;;;;;;;;;;;;5066209;28;19970;-64
2023/06/21 08:21:25;;;;;;;;;;;;;;;;;;5075430;28;20276;-64
2023/06/21 08:27:01;;;;;;;;;;;;;;;;;;5084002;27;19931;-63
2023/06/21 08:30:15;;;;;;;;;;;;;;;;;;5084022;27;20469;-64
2023/06/21 08:35:02;;;;;;;;;;;;;;;;;;5140476;27;20372;-64
2023/06/21 08:37:28;;;;;;;;;;;;;;;;;;5103767;28;20005;-64
2023/06/21 08:39:56;;;;;;;;;;;;;;;;;;5124493;28;19911;-65
2023/06/21 08:43:19;;;;;;;;;;;;;;;;;;5155908;27;19919;-63
2023/06/21 08:45:45;;;;;;;;;;;;;;;;;;5138542;27;20383;-63
2023/06/21 08:48:11;;;;;;;;;;;;;;;;;;5133779;27;19954;-64
2023/06/21 08:50:37;;;;;;;;;;;;;;;;;;5150965;27;19912;-65
2023/06/21 08:53:03;;;;;;;;;;;;;;;;;;5140209;27;19915;-64
2023/06/21 08:55:29;;;;;;;;;;;;;;;;;;5111692;27;19931;-65
2023/06/21 08:57:56;;;;;;;;;;;;;;;;;;5120303;27;20367;-66
2023/06/21 09:03:13;;;;;;;;;;;;;;;;;;5140916;27;19920;-64
2023/06/21 09:05:39;;;;;;;;;;;;;;;;;;5138971;27;19957;-64
2023/06/21 09:08:07;;;;;;;;;;;;;;;;;;5135606;27;19954;-64
2023/06/21 09:12:41;;;;;;;;;;;;;;;;;;5085332;28;19912;-64
2023/06/21 09:15:51;;;;;;;;;;;;;;;;;;5105956;27;19942;-63
2023/06/21 09:18:17;;;;;;;;;;;;;;;;;;5107513;28;19916;-65
2023/06/21 09:20:43;;;;;;;;;;;;;;;;;;5106193;28;20322;-64
2023/06/21 09:23:09;;;;;;;;;;;;;;;;;;5106205;28;20497;-63
2023/06/21 09:25:35;;;;;;;;;;;;;;;;;;5105273;28;19912;-66
2023/06/21 09:28:01;;;;;;;;;;;;;;;;;;5105463;28;19965;-66
2023/06/21 09:30:27;;;;;;;;;;;;;;;;;;5106385;28;19912;-63
2023/06/21 09:32:53;;;;;;;;;;;;;;;;;;5106411;28;19915;-62
2023/06/21 09:35:18;;;;;;;;;;;;;;;;;;5106305;28;20410;-62
2023/06/21 09:37:44;;;;;;;;;;;;;;;;;;5106851;28;20447;-62
2023/06/21 09:40:10;;;;;;;;;;;;;;;;;;5106386;28;20284;-62
2023/06/21 09:42:37;;;;;;;;;;;;;;;;;;5112385;28;19916;-63
2023/06/21 09:45:03;;;;;;;;;;;;;;;;;;5106041;28;19908;-64
2023/06/21 09:47:29;;;;;;;;;;;;;;;;;;5105326;28;20364;-62
2023/06/21 09:49:56;;;;;;;;;;;;;;;;;;5107322;28;19953;-63
2023/06/21 09:53:35;;;;;;;;;;;;;;;;;;5108318;27;19913;-62
2023/06/21 09:56:01;;;;;;;;;;;;;;;;;;5104208;28;20379;-64
2023/06/21 09:58:28;;;;;;;;;;;;;;;;;;5106804;28;20027;-64
2023/06/21 10:00:54;;;;;;;;;;;;;;;;;;5106719;28;19908;-64
2023/06/21 10:03:20;;;;;;;;;;;;;;;;;;5106373;28;20372;-63
2023/06/21 10:05:45;;;;;;;;;;;;;;;;;;5104772;28;19998;-64
2023/06/21 10:08:13;;;;;;;;;;;;;;;;;;5106662;28;19915;-64
2023/06/21 10:12:06;;;;;;;;;;;;;;;;;;5110573;27;19916;-62
2023/06/21 10:14:32;;;;;;;;;;;;;;;;;;5110766;28;19912;-62
2023/06/21 10:16:58;;;;;;;;;;;;;;;;;;5108302;28;20330;-62
2023/06/21 10:19:24;;;;;;;;;;;;;;;;;;5110659;28;19908;-64
2023/06/21 10:21:50;;;;;;;;;;;;;;;;;;5108981;28;19914;-66
2023/06/21 10:24:16;;;;;;;;;;;;;;;;;;5109616;28;20287;-65
2023/06/21 10:26:42;;;;;;;;;;;;;;;;;;5109891;28;19961;-64
2023/06/21 10:29:08;;;;;;;;;;;;;;;;;;5117020;28;20301;-65
2023/06/21 10:31:34;;;;;;;;;;;;;;;;;;5129131;28;20295;-65
2023/06/21 10:34:00;;;;;;;;;;;;;;;;;;5131113;27;20047;-63
2023/06/21 10:36:26;;;;;;;;;;;;;;;;;;5131016;27;19980;-65
2023/06/21 10:38:52;;;;;;;;;;;;;;;;;;5130546;27;20427;-63
2023/06/21 10:41:18;;;;;;;;;;;;;;;;;;5130364;27;19996;-64
2023/06/21 10:43:44;;;;;;;;;;;;;;;;;;5130983;27;19908;-62
2023/06/21 10:46:10;;;;;;;;;;;;;;;;;;5130337;27;19912;-62
2023/06/21 10:48:36;;;;;;;;;;;;;;;;;;5128631;28;20325;-62
2023/06/21 10:51:02;;;;;;;;;;;;;;;;;;5127318;27;20362;-61
2023/06/21 10:53:28;;;;;;;;;;;;;;;;;;5108607;28;20298;-62
2023/06/21 10:55:54;;;;;;;;;;;;;;;;;;5106624;28;19908;-62
2023/06/21 10:58:20;;;;;;;;;;;;;;;;;;5106288;28;19915;-62
2023/06/21 11:00:47;;;;;;;;;;;;;;;;;;5105975;28;19916;-63
2023/06/21 11:03:15;;;;;;;;;;;;;;;;;;5105569;28;19930;-62
2023/06/21 11:05:41;;;;;;;;;;;;;;;;;;5100268;28;19951;-61
2023/06/21 11:08:09;;;;;;;;;;;;;;;;;;5105081;28;20308;-63
2023/06/21 11:10:35;;;;;;;;;;;;;;;;;;5106617;28;19954;-62
2023/06/21 11:13:00;;;;;;;;;;;;;;;;;;5105675;28;20257;-63
2023/06/21 11:15:27;;;;;;;;;;;;;;;;;;5106098;28;20272;-63
2023/06/21 11:17:52;;;;;;;;;;;;;;;;;;5105080;28;19915;-63
2023/06/21 11:20:18;;;;;;;;;;;;;;;;;;5104583;28;20280;-62
2023/06/21 11:22:44;;;;;;;;;;;;;;;;;;5094614;28;19912;-61
2023/06/21 11:25:10;;;;;;;;;;;;;;;;;;5093615;28;19915;-62
2023/06/21 11:27:36;;;;;;;;;;;;;;;;;;5093524;28;19912;-61
2023/06/21 11:30:10;;;;;;;;;;;;;;;;;;5093522;28;19912;-62
2023/06/21 11:32:36;;;;;;;;;;;;;;;;;;5094377;28;19954;-62
2023/06/21 11:35:03;;;;;;;;;;;;;;;;;;5094484;28;20387;-62
2023/06/21 11:37:29;;;;;;;;;;;;;;;;;;5094761;28;19912;-62
2023/06/21 11:39:55;;;;;;;;;;;;;;;;;;5093403;28;19935;-62
2023/06/21 11:42:21;;;;;;;;;;;;;;;;;;5092604;28;19953;-62
2023/06/21 11:44:47;;;;;;;;;;;;;;;;;;5094095;28;19919;-62
2023/06/21 11:47:13;;;;;;;;;;;;;;;;;;5095502;28;19915;-62
2023/06/21 11:49:39;;;;;;;;;;;;;;;;;;5095317;28;19908;-62
2023/06/21 11:52:07;;;;;;;;;;;;;;;;;;5093072;28;19923;-63
2023/06/21 11:54:33;;;;;;;;;;;;;;;;;;5095244;28;19908;-62
2023/06/21 11:56:59;;;;;;;;;;;;;;;;;;5095291;28;19912;-63
2023/06/21 11:59:25;;;;;;;;;;;;;;;;;;5094334;28;19970;-63
2023/06/21 12:01:50;;;;;;;;;;;;;;;;;;5095424;28;20002;-63
2023/06/21 12:04:16;;;;;;;;;;;;;;;;;;5086401;28;20365;-63
2023/06/21 12:06:42;;;;;;;;;;;;;;;;;;5075140;28;19951;-62
2023/06/21 12:09:08;;;;;;;;;;;;;;;;;;5074811;28;19909;-63
2023/06/21 12:11:34;;;;;;;;;;;;;;;;;;5074782;28;19921;-63
2023/06/21 12:14:02;;;;;;;;;;;;;;;;;;5089349;28;19999;-63
2023/06/21 12:16:30;;;;;;;;;;;;;;;;;;5094440;28;19912;-62
2023/06/21 12:18:56;;;;;;;;;;;;;;;;;;5088443;28;19919;-61
2023/06/21 12:21:22;;;;;;;;;;;;;;;;;;5094340;28;19908;-61
2023/06/21 12:23:48;;;;;;;;;;;;;;;;;;5101182;28;19908;-62
2023/06/21 12:26:18;;;;;;;;;;;;;;;;;;5092254;28;20449;-62
2023/06/21 12:28:43;;;;;;;;;;;;;;;;;;5090750;28;19959;-62
2023/06/21 12:31:11;;;;;;;;;;;;;;;;;;5093213;28;20386;-64
2023/06/21 12:33:37;;;;;;;;;;;;;;;;;;5093933;28;19950;-64
2023/06/21 12:36:03;;;;;;;;;;;;;;;;;;5094914;28;19952;-64
2023/06/21 12:38:29;;;;;;;;;;;;;;;;;;5094328;28;19931;-64
2023/06/21 12:40:55;;;;;;;;;;;;;;;;;;5095001;28;19912;-63
2023/06/21 12:43:21;;;;;;;;;;;;;;;;;;5094734;28;20013;-64
2023/06/21 12:45:47;;;;;;;;;;;;;;;;;;5093500;28;19950;-63
2023/06/21 12:48:13;;;;;;;;;;;;;;;;;;5094507;28;19918;-64
2023/06/21 12:50:40;;;;;;;;;;;;;;;;;;5090984;28;19955;-64
2023/06/21 12:53:06;;;;;;;;;;;;;;;;;;5091908;28;20382;-63
2023/06/21 12:55:32;;;;;;;;;;;;;;;;;;5091457;28;19908;-63
2023/06/21 12:57:58;;;;;;;;;;;;;;;;;;5090378;28;19908;-64
2023/06/21 13:00:24;;;;;;;;;;;;;;;;;;5089750;28;19914;-63
2023/06/21 13:02:53;;;;;;;;;;;;;;;;;;5089489;28;20396;-63
2023/06/21 13:05:19;;;;;;;;;;;;;;;;;;5089481;28;20269;-62
2023/06/21 13:07:45;;;;;;;;;;;;;;;;;;5092617;28;19908;-65
2023/06/21 13:10:11;;;;;;;;;;;;;;;;;;5093521;28;19927;-66
2023/06/21 13:12:38;;;;;;;;;;;;;;;;;;5093872;28;19908;-68
2023/06/21 13:15:04;;;;;;;;;;;;;;;;;;5074119;28;20404;-67
2023/06/21 13:17:29;;;;;;;;;;;;;;;;;;5090068;28;19936;-66
2023/06/21 13:19:55;;;;;;;;;;;;;;;;;;5090589;28;20076;-66
2023/06/21 13:22:21;;;;;;;;;;;;;;;;;;5090759;28;19912;-67
2023/06/21 13:24:48;;;;;;;;;;;;;;;;;;5091227;28;19919;-66
2023/06/21 13:27:14;;;;;;;;;;;;;;;;;;5091783;28;20356;-66
2023/06/21 13:29:40;;;;;;;;;;;;;;;;;;5074475;28;19961;-66
2023/06/21 13:32:06;;;;;;;;;;;;;;;;;;5094146;28;20364;-66
2023/06/21 13:34:32;;;;;;;;;;;;;;;;;;5093773;28;19908;-67
2023/06/21 13:36:58;;;;;;;;;;;;;;;;;;5093963;28;19916;-67
2023/06/21 13:39:24;;;;;;;;;;;;;;;;;;5094134;28;19930;-67
2023/06/21 13:41:50;;;;;;;;;;;;;;;;;;5093578;28;19961;-67
2023/06/21 13:44:16;;;;;;;;;;;;;;;;;;5075906;28;19912;-67
2023/06/21 13:46:42;;;;;;;;;;;;;;;;;;5093730;28;20376;-67
2023/06/21 13:49:08;;;;;;;;;;;;;;;;;;5093570;28;19953;-66
2023/06/21 13:51:34;;;;;;;;;;;;;;;;;;5093992;28;20003;-67
2023/06/21 13:54:00;;;;;;;;;;;;;;;;;;5093982;28;20360;-67
2023/06/21 13:56:27;;;;;;;;;;;;;;;;;;5075540;28;20474;-66
2023/06/21 13:58:54;;;;;;;;;;;;;;;;;;5093894;28;20299;-66
2023/06/21 14:01:20;;;;;;;;;;;;;;;;;;5093858;28;20356;-66
2023/06/21 14:03:46;;;;;;;;;;;;;;;;;;5093573;28;19908;-66
2023/06/21 14:06:12;;;;;;;;;;;;;;;;;;5075745;28;19917;-66
2023/06/21 14:08:38;;;;;;;;;;;;;;;;;;5093659;28;19912;-66
2023/06/21 14:11:04;;;;;;;;;;;;;;;;;;5093402;28;19920;-65
2023/06/21 14:13:30;;;;;;;;;;;;;;;;;;5093888;28;19908;-65
2023/06/21 14:15:56;;;;;;;;;;;;;;;;;;5093403;28;19915;-66
2023/06/21 14:18:22;;;;;;;;;;;;;;;;;;5093838;28;19912;-66
2023/06/21 14:20:48;;;;;;;;;;;;;;;;;;5093711;28;20000;-66
2023/06/21 14:23:14;;;;;;;;;;;;;;;;;;5093409;28;19915;-66
2023/06/21 14:25:43;;;;;;;;;;;;;;;;;;5075705;28;19916;-66
2023/06/21 14:28:09;;;;;;;;;;;;;;;;;;5093728;28;19909;-66
2023/06/21 14:30:35;;;;;;;;;;;;;;;;;;5093015;28;19920;-66
2023/06/21 14:33:01;;;;;;;;;;;;;;;;;;5075247;28;19917;-66
2023/06/21 14:35:27;;;;;;;;;;;;;;;;;;5075451;28;20411;-67
2023/06/21 14:37:54;;;;;;;;;;;;;;;;;;5093013;28;20300;-66
2023/06/21 14:40:20;;;;;;;;;;;;;;;;;;5093478;28;19999;-66
2023/06/21 14:42:46;;;;;;;;;;;;;;;;;;5093447;28;20426;-65
2023/06/21 14:45:12;;;;;;;;;;;;;;;;;;5083035;28;20270;-66
2023/06/21 14:47:38;;;;;;;;;;;;;;;;;;5072845;28;20280;-66
2023/06/21 14:50:04;;;;;;;;;;;;;;;;;;5071283;28;19962;-67
2023/06/21 14:52:31;;;;;;;;;;;;;;;;;;5054394;28;19912;-66
2023/06/21 14:54:57;;;;;;;;;;;;;;;;;;5071885;28;19958;-66
2023/06/21 14:57:23;;;;;;;;;;;;;;;;;;5055919;28;19909;-67
2023/06/21 14:59:52;;;;;;;;;;;;;;;;;;5076298;28;19961;-66
2023/06/21 15:02:18;;;;;;;;;;;;;;;;;;5076759;28;20021;-66
2023/06/21 15:04:44;;;;;;;;;;;;;;;;;;5076440;28;19938;-66
2023/06/21 15:07:14;;;;;;;;;;;;;;;;;;5076324;28;19931;-66
2023/06/21 15:09:40;;;;;;;;;;;;;;;;;;5076406;28;20046;-66
2023/06/21 15:12:05;;;;;;;;;;;;;;;;;;5095014;28;20026;-66
2023/06/21 15:14:31;;;;;;;;;;;;;;;;;;5096659;28;19908;-66
2023/06/21 15:16:57;;;;;;;;;;;;;;;;;;5096097;28;19908;-66
2023/06/21 15:19:24;;;;;;;;;;;;;;;;;;5092986;28;19951;-66
2023/06/21 15:21:50;;;;;;;;;;;;;;;;;;5096517;28;20422;-66
2023/06/21 15:24:16;;;;;;;;;;;;;;;;;;5096723;28;19912;-66
2023/06/21 15:26:42;;;;;;;;;;;;;;;;;;5094661;28;19915;-66
2023/06/21 15:29:08;;;;;;;;;;;;;;;;;;5098079;28;20398;-65
2023/06/21 15:31:34;;;;;;;;;;;;;;;;;;5116795;28;19919;-65
2023/06/21 15:34:00;;;;;;;;;;;;;;;;;;5116276;28;19961;-65
2023/06/21 15:36:26;;;;;;;;;;;;;;;;;;5115502;28;20337;-65
2023/06/21 15:38:52;;;;;;;;;;;;;;;;;;5115226;28;19916;-65
2023/06/21 15:41:18;;;;;;;;;;;;;;;;;;5116693;28;20294;-66
2023/06/21 15:43:44;;;;;;;;;;;;;;;;;;5116571;28;20283;-65
2023/06/21 15:46:15;;;;;;;;;;;;;;;;;;5116619;28;19911;-66
2023/06/21 15:48:41;;;;;;;;;;;;;;;;;;5116126;28;19914;-66
2023/06/21 15:51:07;;;;;;;;;;;;;;;;;;5116227;28;19915;-66
2023/06/21 15:53:33;;;;;;;;;;;;;;;;;;5115112;28;19915;-66
2023/06/21 15:55:59;;;;;;;;;;;;;;;;;;5116163;28;19908;-66
2023/06/21 15:58:25;;;;;;;;;;;;;;;;;;5115443;28;19912;-67
2023/06/21 16:00:51;;;;;;;;;;;;;;;;;;5116209;28;19915;-66
2023/06/21 16:03:17;;;;;;;;;;;;;;;;;;5115959;28;19907;-66
2023/06/21 16:05:43;;;;;;;;;;;;;;;;;;5116387;28;19914;-66
2023/06/21 16:08:10;;;;;;;;;;;;;;;;;;5107133;28;19915;-66
2023/06/21 16:10:36;;;;;;;;;;;;;;;;;;5094837;28;19928;-67
2023/06/21 16:13:03;;;;;;;;;;;;;;;;;;5094509;28;20002;-67
2023/06/21 16:15:29;;;;;;;;;;;;;;;;;;5095273;28;20280;-66
2023/06/21 16:17:55;;;;;;;;;;;;;;;;;;5094426;28;19908;-66
2023/06/21 16:20:21;;;;;;;;;;;;;;;;;;5095753;28;19908;-67
2023/06/21 16:22:47;;;;;;;;;;;;;;;;;;5095255;28;19917;-66
2023/06/21 16:25:13;;;;;;;;;;;;;;;;;;5095565;28;20276;-66
2023/06/21 16:27:38;;;;;;;;;;;;;;;;;;5095514;28;20257;-65
2023/06/21 16:30:07;;;;;;;;;;;;;;;;;;5095072;28;19908;-67
2023/06/21 16:32:33;;;;;;;;;;;;;;;;;;5094010;28;19974;-66
2023/06/21 16:34:59;;;;;;;;;;;;;;;;;;5094185;28;19908;-66
2023/06/21 16:37:25;;;;;;;;;;;;;;;;;;5094945;28;19918;-66
2023/06/21 16:39:51;;;;;;;;;;;;;;;;;;5095303;28;19915;-66
2023/06/21 16:42:17;;;;;;;;;;;;;;;;;;5095283;28;19912;-66
2023/06/21 16:44:43;;;;;;;;;;;;;;;;;;5094634;28;19908;-66
2023/06/21 16:47:09;;;;;;;;;;;;;;;;;;5095170;28;19947;-66
2023/06/21 16:49:35;;;;;;;;;;;;;;;;;;5095294;28;19908;-67
2023/06/21 16:52:01;;;;;;;;;;;;;;;;;;5094484;28;19961;-66
2023/06/21 16:54:27;;;;;;;;;;;;;;;;;;5095077;28;19912;-67
2023/06/21 16:56:54;;;;;;;;;;;;;;;;;;5094882;28;19912;-67
2023/06/21 16:59:20;;;;;;;;;;;;;;;;;;5094470;28;19927;-67
2023/06/21 17:01:47;;;;;;;;;;;;;;;;;;5094911;28;20257;-67
2023/06/21 17:04:13;;;;;;;;;;;;;;;;;;5093530;28;19908;-67
2023/06/21 17:06:39;;;;;;;;;;;;;;;;;;5093075;28;20395;-67
2023/06/21 17:09:06;;;;;;;;;;;;;;;;;;5094842;28;19913;-67
2023/06/21 17:11:32;;;;;;;;;;;;;;;;;;5094411;28;20011;-67
2023/06/21 17:14:02;;;;;;;;;;;;;;;;;;5093467;28;20002;-66
2023/06/21 17:16:28;;;;;;;;;;;;;;;;;;5093342;28;19912;-66
2023/06/21 17:18:54;;;;;;;;;;;;;;;;;;5094034;28;19922;-66
2023/06/21 17:21:20;;;;;;;;;;;;;;;;;;5093833;28;19955;-66
2023/06/21 17:23:59;;;;;;;;;;;;;;;;;;5111825;27;19912;-66
2023/06/21 17:26:25;;;;;;;;;;;;;;;;;;5111331;28;20392;-66
2023/06/21 17:28:51;;;;;;;;;;;;;;;;;;5111461;28;19908;-66
2023/06/21 17:31:18;;;;;;;;;;;;;;;;;;5111494;28;19916;-66
2023/06/21 17:33:44;;;;;;;;;;;;;;;;;;5110939;28;19918;-66
2023/06/21 17:36:10;;;;;;;;;;;;;;;;;;5110131;28;20007;-66
2023/06/21 17:38:36;;;;;;;;;;;;;;;;;;5111283;28;19908;-67
2023/06/21 17:41:02;;;;;;;;;;;;;;;;;;5110889;28;20431;-67
2023/06/21 17:43:27;;;;;;;;;;;;;;;;;;5109770;28;20383;-66
2023/06/21 17:45:53;;;;;;;;;;;;;;;;;;5111287;28;20368;-67
2023/06/21 17:48:19;;;;;;;;;;;;;;;;;;5110830;28;20355;-67
2023/06/21 17:50:45;;;;;;;;;;;;;;;;;;5111052;28;19915;-67
2023/06/21 17:53:14;;;;;;;;;;;;;;;;;;5111116;28;19908;-67
2023/06/21 17:55:40;;;;;;;;;;;;;;;;;;5110664;28;19908;-67
2023/06/21 17:58:06;;;;;;;;;;;;;;;;;;5111101;28;19915;-67
2023/06/21 18:00:32;;;;;;;;;;;;;;;;;;5110843;28;19999;-65
2023/06/21 18:02:58;;;;;;;;;;;;;;;;;;5108879;28;19916;-67
2023/06/21 18:05:24;;;;;;;;;;;;;;;;;;5110759;28;19908;-66
2023/06/21 18:07:50;;;;;;;;;;;;;;;;;;5109237;28;19915;-66
2023/06/21 18:10:16;;;;;;;;;;;;;;;;;;5110827;28;19908;-66
2023/06/21 18:12:42;;;;;;;;;;;;;;;;;;5110762;28;19930;-66
2023/06/21 18:15:08;;;;;;;;;;;;;;;;;;5110406;28;20423;-67
2023/06/21 18:17:36;;;;;;;;;;;;;;;;;;5111048;28;20387;-67
2023/06/21 18:20:02;;;;;;;;;;;;;;;;;;5110741;28;19908;-67
2023/06/21 18:22:28;;;;;;;;;;;;;;;;;;5109434;28;20019;-66
2023/06/21 18:24:54;;;;;;;;;;;;;;;;;;5110486;28;19909;-67
2023/06/21 18:27:20;;;;;;;;;;;;;;;;;;5110488;28;19915;-67
2023/06/21 18:29:46;;;;;;;;;;;;;;;;;;5108795;28;19954;-67
2023/06/21 18:32:12;;;;;;;;;;;;;;;;;;5110368;28;20371;-67
2023/06/21 18:34:38;;;;;;;;;;;;;;;;;;5100418;28;20272;-67
2023/06/21 18:37:04;;;;;;;;;;;;;;;;;;5096035;28;19908;-67
2023/06/21 18:40:34;;;;;;;;;;;;;;;;;;5071026;28;20266;-66
2023/06/21 18:45:02;;;;;;;;;;;;;;;;;;5090912;27;20376;-68
2023/06/21 18:47:28;;;;;;;;;;;;;;;;;;5091657;28;19958;-67
2023/06/21 18:52:23;;;;;;;;;;;;;;;;;;5091015;27;19922;-67
2023/06/21 18:54:49;;;;;;;;;;;;;;;;;;5090346;28;19974;-66
2023/06/21 18:57:16;;;;;;;;;;;;;;;;;;5090825;28;20368;-66
2023/06/21 18:59:42;;;;;;;;;;;;;;;;;;5091301;28;20373;-66
2023/06/21 19:02:08;;;;;;;;;;;;;;;;;;5089730;28;19915;-66
2023/06/21 19:04:35;;;;;;;;;;;;;;;;;;5090652;28;19908;-66
2023/06/21 19:08:08;;;;;;;;;;;;;;;;;;5111935;27;20265;-68
2023/06/21 19:10:34;;;;;;;;;;;;;;;;;;5111624;28;20002;-66
2023/06/21 19:13:00;;;;;;;;;;;;;;;;;;5111286;28;19950;-67
2023/06/21 19:15:27;;;;;;;;;;;;;;;;;;5111496;28;19908;-66
2023/06/21 19:17:54;;;;;;;;;;;;;;;;;;5111558;28;19951;-66
2023/06/21 19:20:20;;;;;;;;;;;;;;;;;;5111083;28;20382;-66
2023/06/21 19:22:46;;;;;;;;;;;;;;;;;;5110047;28;19912;-66
2023/06/21 19:26:44;;;;;;;;;;;;;;;;;;5152426;27;19917;-68
2023/06/21 19:29:10;;;;;;;;;;;;;;;;;;5152943;27;20006;-67
2023/06/21 19:31:36;;;;;;;;;;;;;;;;;;5151879;27;19945;-67